»·PEaware :: 3AMCH TAPA-TQPF

3AMCH :: TAPA-TQPF

FLIGHT INFORMATION

Flight Status: Arrived
Operator: Unknown
More flights by this operator :: More flights under this callsign
Pilot: Timothy W. (9658)
Aircraft: ECLIPSE 500
(EA50)
More flights by this aircraft type
Origin: TAPA V C Bird Intl
Antigua and Barbuda
Destination: TQPF Wallblake
Anguilla
More flights between these airports :: More routes between these airports
Route: ANU B520 PJM
File this flight plan on PilotEdge
Remarks:
Altitude:
(Current/Filed)
18,000ft
Speed:
(Current/Filed)
262kts
Departed: 03-Aug-18 03:34 PM
Arrived: 03-Aug-18 04:12 PM
Distance/Time
Traveled:
96nm/0:38
Distance/Time
To Go:
Arrived

Flight Plot

Page will automatically refresh every two minutes.

Flight plan parsing failed; only flown route is shown


Map Options




Map Legend


Flown Route
Filed Route
Departure Airport
Arrival Airport
Navaid (VOR, NDB)
Fix

Horizontal Profiles

Position Reports

Time Latitude Longitude Heading Altitude Ground
Speed
03-Aug-18 15:22 17.140979 -61.778516 184 17ft 0kts
03-Aug-18 15:23 17.140979 -61.778516 184 17ft 0kts
03-Aug-18 15:24 17.140979 -61.778516 184 17ft 0kts
03-Aug-18 15:25 17.140979 -61.778516 184 17ft 0kts
03-Aug-18 15:26 17.140979 -61.778516 184 17ft 0kts
03-Aug-18 15:27 17.140642 -61.779190 270 18ft 11kts
03-Aug-18 15:28 17.141000 -61.784782 274 24ft 23kts
03-Aug-18 15:29 17.140478 -61.789640 240 43ft 14kts
03-Aug-18 15:30 17.137618 -61.793406 237 58ft 20kts
03-Aug-18 15:31 17.134089 -61.798338 193 68ft 12kts
03-Aug-18 15:32 17.130228 -61.803622 238 63ft 31kts
03-Aug-18 15:33 17.129105 -61.805553 58 62ft 0kts
03-Aug-18 15:34 17.129105 -61.805553 58 62ft 0kts
03-Aug-18 15:35 17.129889 -61.804195 58 61ft 52kts
03-Aug-18 15:36 17.147862 -61.775175 49 1637ft 144kts
03-Aug-18 15:37 17.175235 -61.744484 50 4213ft 150kts
03-Aug-18 15:38 17.203825 -61.712349 51 6598ft 156kts
03-Aug-18 15:39 17.233736 -61.678703 51 8816ft 163kts
03-Aug-18 15:40 17.260426 -61.642981 15 10814ft 179kts
03-Aug-18 15:41 17.273523 -61.682570 232 12655ft 195kts
03-Aug-18 15:42 17.243303 -61.730310 232 14451ft 201kts
03-Aug-18 15:43 17.205291 -61.769650 194 16110ft 195kts
03-Aug-18 15:44 17.153918 -61.789825 195 17574ft 200kts
03-Aug-18 15:45 17.154476 -61.841337 308 18053ft 233kts
03-Aug-18 15:46 17.193356 -61.896903 308 18049ft 240kts
03-Aug-18 15:47 17.233145 -61.953898 308 18050ft 245kts
03-Aug-18 15:48 17.273480 -62.011754 308 18050ft 248kts
03-Aug-18 15:49 17.314377 -62.070476 308 18050ft 250kts
03-Aug-18 15:50 17.355409 -62.129237 308 18045ft 252kts
03-Aug-18 15:51 17.396678 -62.188339 308 18046ft 252kts
03-Aug-18 15:52 17.437794 -62.247446 308 18046ft 252kts
03-Aug-18 15:53 17.478973 -62.306753 308 18046ft 252kts
03-Aug-18 15:54 17.520197 -62.366198 308 18047ft 252kts
03-Aug-18 15:55 17.561314 -62.425547 308 18044ft 252kts
03-Aug-18 15:56 17.602263 -62.484707 308 18032ft 253kts
03-Aug-18 15:57 17.643783 -62.544746 308 18020ft 254kts
03-Aug-18 15:58 17.685025 -62.604711 308 18008ft 254kts
03-Aug-18 15:59 17.726287 -62.664604 308 18000ft 253kts
03-Aug-18 16:00 17.767523 -62.724428 308 18001ft 254kts
03-Aug-18 16:01 17.808899 -62.784488 308 17120ft 252kts
03-Aug-18 16:02 17.848984 -62.842744 307 15941ft 248kts
03-Aug-18 16:03 17.888862 -62.900826 307 14476ft 246kts
03-Aug-18 16:04 17.928667 -62.958782 307 12504ft 248kts
03-Aug-18 16:05 17.968702 -63.017159 307 10520ft 246kts
03-Aug-18 16:06 18.007937 -63.074387 308 8654ft 238kts
03-Aug-18 16:07 18.052307 -63.112546 10 6783ft 186kts
03-Aug-18 16:08 18.099500 -63.107017 11 4826ft 165kts
03-Aug-18 16:09 18.141260 -63.101375 13 3296ft 141kts
03-Aug-18 16:10 18.176690 -63.096308 13 1936ft 115kts
03-Aug-18 16:11 18.203227 -63.086798 77 1016ft 99kts
03-Aug-18 16:12 18.204776 -63.060129 87 160ft 90kts
03-Aug-18 16:13 18.205566 -63.051659 1 101ft 0kts
03-Aug-18 16:14 18.205658 -63.051653 3 101ft 3kts
03-Aug-18 16:15 18.206201 -63.051720 177 101ft 0kts
03-Aug-18 16:16 18.206201 -63.051720 177 101ft 0kts
03-Aug-18 16:17 18.206201 -63.051720 177 101ft 0kts
03-Aug-18 16:18 18.206201 -63.051720 177 101ft 0kts
03-Aug-18 16:19 18.206201 -63.051720 177 101ft 0kts
03-Aug-18 16:20 18.206201 -63.051720 177 101ft 0kts
03-Aug-18 16:21 18.206201 -63.051720 177 101ft 0kts
03-Aug-18 16:22 18.206201 -63.051720 177 101ft 0kts
03-Aug-18 16:23 18.206201 -63.051720 177 101ft 0kts
03-Aug-18 16:24 18.206201 -63.051720 177 101ft 0kts

Navigation Log

Ident Type
Flight plan parsing failed, navigation log unavailable